sensor_id;sensor_type;location;lat;lon;timestamp;pressure;altitude;pressure_sealevel;temperature;humidity
15193;BME280;7697;51.630;7.484;2023-07-31T00:02:06;-17663.19;;;17.69;100.00
15193;BME280;7697;51.630;7.484;2023-07-31T00:07:08;-17664.69;;;17.73;100.00
15193;BME280;7697;51.630;7.484;2023-07-31T00:12:11;-17665.03;;;17.74;100.00
15193;BME280;7697;51.630;7.484;2023-07-31T00:17:12;-17664.88;;;17.74;100.00
15193;BME280;7697;51.630;7.484;2023-07-31T00:22:14;-17663.03;;;17.68;100.00
15193;BME280;7697;51.630;7.484;2023-07-31T00:27:17;-17661.69;;;17.64;100.00
15193;BME280;7697;51.630;7.484;2023-07-31T00:32:19;-17661.00;;;17.62;100.00
15193;BME280;7697;51.630;7.484;2023-07-31T00:37:21;-17659.50;;;17.57;100.00
15193;BME280;7697;51.630;7.484;2023-07-31T00:42:24;-17658.31;;;17.54;100.00
15193;BME280;7697;51.630;7.484;2023-07-31T00:47:26;-17655.63;;;17.46;100.00
15193;BME280;7697;51.630;7.484;2023-07-31T00:52:28;-17658.97;;;17.56;100.00
15193;BME280;7697;51.630;7.484;2023-07-31T00:57:32;-17657.31;;;17.51;100.00
15193;BME280;7697;51.630;7.484;2023-07-31T01:02:35;-17653.94;;;17.41;100.00
15193;BME280;7697;51.630;7.484;2023-07-31T01:07:56;-17653.28;;;17.39;100.00
15193;BME280;7697;51.630;7.484;2023-07-31T01:13:03;-17651.78;;;17.34;100.00
15193;BME280;7697;51.630;7.484;2023-07-31T01:18:05;-17653.28;;;17.39;100.00
15193;BME280;7697;51.630;7.484;2023-07-31T01:23:49;-17656.31;;;17.48;100.00
15193;BME280;7697;51.630;7.484;2023-07-31T01:29:00;-17657.47;;;17.51;100.00
15193;BME280;7697;51.630;7.484;2023-07-31T01:34:04;-17658.66;;;17.55;100.00
15193;BME280;7697;51.630;7.484;2023-07-31T01:39:07;-17658.66;;;17.55;100.00
15193;BME280;7697;51.630;7.484;2023-07-31T01:44:10;-17658.66;;;17.55;100.00
15193;BME280;7697;51.630;7.484;2023-07-31T01:49:12;-17660.16;;;17.59;100.00
15193;BME280;7697;51.630;7.484;2023-07-31T01:54:15;-17659.66;;;17.58;100.00
15193;BME280;7697;51.630;7.484;2023-07-31T01:59:19;-17659.31;;;17.57;100.00
15193;BME280;7697;51.630;7.484;2023-07-31T02:04:21;-17661.50;;;17.63;100.00
15193;BME280;7697;51.630;7.484;2023-07-31T02:09:23;-17662.00;;;17.65;100.00
15193;BME280;7697;51.630;7.484;2023-07-31T02:14:27;-17660.16;;;17.59;100.00
15193;BME280;7697;51.630;7.484;2023-07-31T02:19:29;-17662.69;;;17.67;100.00
15193;BME280;7697;51.630;7.484;2023-07-31T02:24:31;-17660.00;;;17.59;100.00
15193;BME280;7697;51.630;7.484;2023-07-31T02:29:35;-17659.81;;;17.58;100.00
15193;BME280;7697;51.630;7.484;2023-07-31T02:34:37;-17659.31;;;17.57;100.00
15193;BME280;7697;51.630;7.484;2023-07-31T02:39:39;-17659.50;;;17.57;100.00
15193;BME280;7697;51.630;7.484;2023-07-31T02:44:44;-17659.50;;;17.57;100.00
15193;BME280;7697;51.630;7.484;2023-07-31T02:49:46;-17661.34;;;17.63;100.00
15193;BME280;7697;51.630;7.484;2023-07-31T02:54:48;-17657.66;;;17.52;100.00
15193;BME280;7697;51.630;7.484;2023-07-31T02:59:52;-17658.97;;;17.56;100.00
15193;BME280;7697;51.630;7.484;2023-07-31T03:04:54;-17660.00;;;17.59;100.00
15193;BME280;7697;51.630;7.484;2023-07-31T03:09:56;-17657.97;;;17.53;100.00
15193;BME280;7697;51.630;7.484;2023-07-31T03:14:59;-17657.97;;;17.53;100.00
15193;BME280;7697;51.630;7.484;2023-07-31T03:20:02;-17657.66;;;17.52;100.00
15193;BME280;7697;51.630;7.484;2023-07-31T03:25:06;-17659.50;;;17.57;100.00
15193;BME280;7697;51.630;7.484;2023-07-31T03:30:11;-17658.66;;;17.55;100.00
15193;BME280;7697;51.630;7.484;2023-07-31T03:35:13;-17658.66;;;17.55;100.00
15193;BME280;7697;51.630;7.484;2023-07-31T03:40:16;-17658.81;;;17.55;100.00
15193;BME280;7697;51.630;7.484;2023-07-31T03:45:20;-17659.31;;;17.57;100.00
15193;BME280;7697;51.630;7.484;2023-07-31T03:50:22;-17659.31;;;17.57;100.00
15193;BME280;7697;51.630;7.484;2023-07-31T03:55:25;-17658.31;;;17.54;100.00
15193;BME280;7697;51.630;7.484;2023-07-31T04:00:29;-17657.13;;;17.50;100.00
15193;BME280;7697;51.630;7.484;2023-07-31T04:05:32;-17658.81;;;17.55;100.00
15193;BME280;7697;51.630;7.484;2023-07-31T04:10:34;-17658.81;;;17.55;100.00
15193;BME280;7697;51.630;7.484;2023-07-31T04:15:37;-17659.66;;;17.58;100.00
15193;BME280;7697;51.630;7.484;2023-07-31T04:20:40;-17659.66;;;17.58;100.00
15193;BME280;7697;51.630;7.484;2023-07-31T04:25:42;-17660.50;;;17.60;100.00
15193;BME280;7697;51.630;7.484;2023-07-31T04:30:46;-17662.69;;;17.67;100.00
15193;BME280;7697;51.630;7.484;2023-07-31T04:35:50;-17663.19;;;17.69;100.00
15193;BME280;7697;51.630;7.484;2023-07-31T04:40:53;-17661.34;;;17.63;100.00
15193;BME280;7697;51.630;7.484;2023-07-31T04:45:57;-17663.84;;;17.71;100.00
15193;BME280;7697;51.630;7.484;2023-07-31T04:50:59;-17663.03;;;17.68;100.00
15193;BME280;7697;51.630;7.484;2023-07-31T04:56:01;-17664.53;;;17.73;100.00
15193;BME280;7697;51.630;7.484;2023-07-31T05:01:05;-17665.88;;;17.77;100.00
15193;BME280;7697;51.630;7.484;2023-07-31T05:06:07;-17668.06;;;17.83;100.00
15193;BME280;7697;51.630;7.484;2023-07-31T05:11:08;-17667.03;;;17.80;100.00
15193;BME280;7697;51.630;7.484;2023-07-31T05:16:12;-17669.06;;;17.86;100.00
15193;BME280;7697;51.630;7.484;2023-07-31T05:21:14;-17668.72;;;17.85;100.00
15193;BME280;7697;51.630;7.484;2023-07-31T05:26:16;-17669.06;;;17.86;100.00
15193;BME280;7697;51.630;7.484;2023-07-31T05:31:19;-17669.56;;;17.88;100.00
15193;BME280;7697;51.630;7.484;2023-07-31T05:36:22;-17671.41;;;17.93;100.00
15193;BME280;7697;51.630;7.484;2023-07-31T05:41:24;-17671.25;;;17.93;100.00
15193;BME280;7697;51.630;7.484;2023-07-31T05:46:28;-17672.59;;;17.97;100.00
15193;BME280;7697;51.630;7.484;2023-07-31T05:51:29;-17675.09;;;18.05;100.00
15193;BME280;7697;51.630;7.484;2023-07-31T05:56:31;-17674.44;;;18.03;100.00
15193;BME280;7697;51.630;7.484;2023-07-31T06:01:35;-17677.13;;;18.11;100.00
15193;BME280;7697;51.630;7.484;2023-07-31T06:06:37;-17676.09;;;18.08;100.00
15193;BME280;7697;51.630;7.484;2023-07-31T06:11:40;-17674.25;;;18.02;100.00
15193;BME280;7697;51.630;7.484;2023-07-31T06:16:43;-17674.09;;;18.02;100.00
15193;BME280;7697;51.630;7.484;2023-07-31T06:21:45;-17676.78;;;18.10;100.00
15193;BME280;7697;51.630;7.484;2023-07-31T06:26:47;-17677.78;;;18.13;100.00
15193;BME280;7697;51.630;7.484;2023-07-31T06:31:50;-17676.78;;;18.10;100.00
15193;BME280;7697;51.630;7.484;2023-07-31T06:36:52;-17676.09;;;18.08;100.00
15193;BME280;7697;51.630;7.484;2023-07-31T06:41:55;-17676.44;;;18.09;100.00
15193;BME280;7697;51.630;7.484;2023-07-31T06:46:58;-17675.78;;;18.07;100.00
15193;BME280;7697;51.630;7.484;2023-07-31T06:52:00;-17676.94;;;18.10;100.00
15193;BME280;7697;51.630;7.484;2023-07-31T06:57:02;-17674.44;;;18.03;100.00
15193;BME280;7697;51.630;7.484;2023-07-31T07:02:06;-17675.94;;;18.07;100.00
15193;BME280;7697;51.630;7.484;2023-07-31T07:07:08;-17677.13;;;18.11;100.00
15193;BME280;7697;51.630;7.484;2023-07-31T07:12:10;-17679.28;;;18.17;100.00
15193;BME280;7697;51.630;7.484;2023-07-31T07:17:13;-17680.47;;;18.21;100.00
15193;BME280;7697;51.630;7.484;2023-07-31T07:22:16;-17681.97;;;18.25;100.00
15193;BME280;7697;51.630;7.484;2023-07-31T07:27:17;-17684.16;;;18.32;100.00
15193;BME280;7697;51.630;7.484;2023-07-31T07:32:21;-17685.00;;;18.34;100.00
15193;BME280;7697;51.630;7.484;2023-07-31T07:37:23;-17685.00;;;18.34;100.00
15193;BME280;7697;51.630;7.484;2023-07-31T07:42:24;-17685.16;;;18.35;100.00
15193;BME280;7697;51.630;7.484;2023-07-31T07:47:28;-17688.19;;;18.44;100.00
15193;BME280;7697;51.630;7.484;2023-07-31T07:52:30;-17687.19;;;18.41;100.00
15193;BME280;7697;51.630;7.484;2023-07-31T07:57:32;-17685.16;;;18.35;100.00
15193;BME280;7697;51.630;7.484;2023-07-31T08:02:37;-17682.81;;;18.28;100.00
15193;BME280;7697;51.630;7.484;2023-07-31T08:07:39;-17685.16;;;18.35;100.00
15193;BME280;7697;51.630;7.484;2023-07-31T08:12:41;-17685.50;;;18.36;100.00
15193;BME280;7697;51.630;7.484;2023-07-31T08:17:44;-17686.19;;;18.38;100.00
15193;BME280;7697;51.630;7.484;2023-07-31T08:22:46;-17689.19;;;18.47;100.00
15193;BME280;7697;51.630;7.484;2023-07-31T08:27:48;-17689.88;;;18.49;100.00
15193;BME280;7697;51.630;7.484;2023-07-31T08:32:54;-17690.03;;;18.50;100.00
15193;BME280;7697;51.630;7.484;2023-07-31T08:37:56;-17690.72;;;18.52;100.00
15193;BME280;7697;51.630;7.484;2023-07-31T08:42:59;-17690.72;;;18.52;100.00
15193;BME280;7697;51.630;7.484;2023-07-31T08:48:04;-17693.22;;;18.59;100.00
15193;BME280;7697;51.630;7.484;2023-07-31T08:53:07;-17693.72;;;18.61;100.00
15193;BME280;7697;51.630;7.484;2023-07-31T08:58:09;-17689.88;;;18.49;100.00
15193;BME280;7697;51.630;7.484;2023-07-31T09:03:15;-17690.19;;;18.50;100.00
15193;BME280;7697;51.630;7.484;2023-07-31T09:08:19;-17689.88;;;18.49;100.00
15193;BME280;7697;51.630;7.484;2023-07-31T09:13:21;-17688.34;;;18.45;100.00
15193;BME280;7697;51.630;7.484;2023-07-31T09:18:25;-17688.19;;;18.44;100.00
15193;BME280;7697;51.630;7.484;2023-07-31T09:23:40;-17690.88;;;18.52;100.00
15193;BME280;7697;51.630;7.484;2023-07-31T09:28:42;-17689.88;;;18.49;100.00
15193;BME280;7697;51.630;7.484;2023-07-31T09:33:55;-17689.69;;;18.49;100.00
15193;BME280;7697;51.630;7.484;2023-07-31T10:09:45;-17692.38;;;18.57;100.00
15193;BME280;7697;51.630;7.484;2023-07-31T10:14:48;-17690.53;;;18.51;100.00
15193;BME280;7697;51.630;7.484;2023-07-31T10:19:50;-17692.22;;;18.56;100.00
15193;BME280;7697;51.630;7.484;2023-07-31T10:24:57;-17695.91;;;18.67;100.00
15193;BME280;7697;51.630;7.484;2023-07-31T10:30:00;-17695.56;;;18.66;100.00
15193;BME280;7697;51.630;7.484;2023-07-31T10:35:06;-17697.94;;;18.73;100.00
15193;BME280;7697;51.630;7.484;2023-07-31T10:40:13;-17700.09;;;18.80;100.00
15193;BME280;7697;51.630;7.484;2023-07-31T10:45:24;-17697.59;;;18.72;100.00
15193;BME280;7697;51.630;7.484;2023-07-31T10:50:28;-17701.44;;;18.84;100.00
15193;BME280;7697;51.630;7.484;2023-07-31T10:55:33;-17703.13;;;18.89;100.00
15193;BME280;7697;51.630;7.484;2023-07-31T11:00:37;-17706.66;;;19.00;100.00
15193;BME280;7697;51.630;7.484;2023-07-31T11:05:47;-17708.34;;;19.05;100.00
15193;BME280;7697;51.630;7.484;2023-07-31T11:11:04;-17707.16;;;19.01;100.00
15193;BME280;7697;51.630;7.484;2023-07-31T11:16:06;-17702.97;;;18.89;100.00
15193;BME280;7697;51.630;7.484;2023-07-31T11:21:08;-17705.47;;;18.96;100.00
15193;BME280;7697;51.630;7.484;2023-07-31T11:26:15;-17704.63;;;18.94;100.00
15193;BME280;7697;51.630;7.484;2023-07-31T11:31:17;-17700.94;;;18.83;100.00
15193;BME280;7697;51.630;7.484;2023-07-31T11:36:20;-17702.28;;;18.87;100.00
15193;BME280;7697;51.630;7.484;2023-07-31T11:41:23;-17701.63;;;18.85;100.00
15193;BME280;7697;51.630;7.484;2023-07-31T11:46:25;-17704.63;;;18.94;100.00
15193;BME280;7697;51.630;7.484;2023-07-31T11:51:28;-17707.00;;;19.01;100.00
15193;BME280;7697;51.630;7.484;2023-07-31T11:56:32;-17711.19;;;19.14;100.00
15193;BME280;7697;51.630;7.484;2023-07-31T12:01:35;-17711.69;;;19.15;100.00
15193;BME280;7697;51.630;7.484;2023-07-31T12:06:37;-17717.41;;;19.32;100.00
15193;BME280;7697;51.630;7.484;2023-07-31T12:11:47;-17715.72;;;19.27;100.00
15193;BME280;7697;51.630;7.484;2023-07-31T12:17:15;-17718.56;;;19.36;100.00
15193;BME280;7697;51.630;7.484;2023-07-31T12:22:31;-17723.94;;;19.52;100.00
15193;BME280;7697;51.630;7.484;2023-07-31T12:27:34;-17727.28;;;19.62;100.00
15193;BME280;7697;51.630;7.484;2023-07-31T12:32:36;-17730.47;;;19.72;100.00
15193;BME280;7697;51.630;7.484;2023-07-31T12:37:38;-17731.66;;;19.75;100.00
15193;BME280;7697;51.630;7.484;2023-07-31T12:42:42;-17732.16;;;19.77;100.00
15193;BME280;7697;51.630;7.484;2023-07-31T12:47:44;-17731.16;;;19.74;100.00
15193;BME280;7697;51.630;7.484;2023-07-31T12:52:45;-17732.50;;;19.78;100.00
15193;BME280;7697;51.630;7.484;2023-07-31T12:57:48;-17731.31;;;19.74;100.00
15193;BME280;7697;51.630;7.484;2023-07-31T13:02:50;-17729.31;;;19.68;100.00
15193;BME280;7697;51.630;7.484;2023-07-31T13:07:52;-17728.63;;;19.66;100.00
15193;BME280;7697;51.630;7.484;2023-07-31T13:12:56;-17727.47;;;19.63;100.00
15193;BME280;7697;51.630;7.484;2023-07-31T13:17:57;-17728.63;;;19.66;100.00
15193;BME280;7697;51.630;7.484;2023-07-31T13:23:00;-17731.50;;;19.75;100.00
15193;BME280;7697;51.630;7.484;2023-07-31T13:28:03;-17736.19;;;19.89;100.00
15193;BME280;7697;51.630;7.484;2023-07-31T13:33:05;-17740.56;;;20.02;100.00
15193;BME280;7697;51.630;7.484;2023-07-31T13:38:07;-17742.41;;;20.08;100.00
15193;BME280;7697;51.630;7.484;2023-07-31T13:43:10;-17745.91;;;20.18;100.00
15193;BME280;7697;51.630;7.484;2023-07-31T13:48:12;-17745.91;;;20.18;100.00
15193;BME280;7697;51.630;7.484;2023-07-31T13:53:14;-17743.56;;;20.11;100.00
15193;BME280;7697;51.630;7.484;2023-07-31T13:58:17;-17742.91;;;20.09;100.00
15193;BME280;7697;51.630;7.484;2023-07-31T14:03:19;-17743.41;;;20.11;100.00
15193;BME280;7697;51.630;7.484;2023-07-31T14:08:21;-17746.75;;;20.21;100.00
15193;BME280;7697;51.630;7.484;2023-07-31T14:13:24;-17745.91;;;20.18;100.00
15193;BME280;7697;51.630;7.484;2023-07-31T14:18:25;-17747.59;;;20.23;100.00
15193;BME280;7697;51.630;7.484;2023-07-31T14:23:27;-17750.63;;;20.33;100.00
15193;BME280;7697;51.630;7.484;2023-07-31T14:28:31;-17757.66;;;20.54;100.00
15193;BME280;7697;51.630;7.484;2023-07-31T14:33:32;-17764.03;;;20.73;100.00
15193;BME280;7697;51.630;7.484;2023-07-31T14:38:34;-17764.22;;;20.74;100.00
15193;BME280;7697;51.630;7.484;2023-07-31T14:43:38;-17765.22;;;20.77;100.00
15193;BME280;7697;51.630;7.484;2023-07-31T14:48:39;-17764.72;;;20.75;100.00
15193;BME280;7697;51.630;7.484;2023-07-31T14:53:41;-17767.91;;;20.85;100.00
15193;BME280;7697;51.630;7.484;2023-07-31T14:58:44;-17766.72;;;20.81;100.00
15193;BME280;7697;51.630;7.484;2023-07-31T15:03:46;-17766.22;;;20.80;100.00
15193;BME280;7697;51.630;7.484;2023-07-31T15:08:48;-17766.91;;;20.82;100.00
15193;BME280;7697;51.630;7.484;2023-07-31T15:13:51;-17764.03;;;20.73;100.00
15193;BME280;7697;51.630;7.484;2023-07-31T15:18:53;-17763.38;;;20.71;100.00
15193;BME280;7697;51.630;7.484;2023-07-31T15:23:55;-17760.53;;;20.63;100.00
15193;BME280;7697;51.630;7.484;2023-07-31T15:29:02;-17760.03;;;20.61;100.00
15193;BME280;7697;51.630;7.484;2023-07-31T15:34:05;-17757.66;;;20.54;100.00
15193;BME280;7697;51.630;7.484;2023-07-31T15:39:07;-17756.84;;;20.51;100.00
15193;BME280;7697;51.630;7.484;2023-07-31T15:44:10;-17754.31;;;20.44;99.81
15193;BME280;7697;51.630;7.484;2023-07-31T15:49:12;-17755.16;;;20.46;100.00
15193;BME280;7697;51.630;7.484;2023-07-31T15:54:14;-17750.94;;;20.34;100.00
15193;BME280;7697;51.630;7.484;2023-07-31T15:59:36;-17747.75;;;20.24;100.00
15193;BME280;7697;51.630;7.484;2023-07-31T16:04:39;-17748.28;;;20.26;100.00
15193;BME280;7697;51.630;7.484;2023-07-31T16:09:43;-17748.94;;;20.28;100.00
15193;BME280;7697;51.630;7.484;2023-07-31T16:14:46;-17747.59;;;20.23;100.00
15193;BME280;7697;51.630;7.484;2023-07-31T16:19:48;-17749.09;;;20.28;100.00
15193;BME280;7697;51.630;7.484;2023-07-31T16:24:50;-17750.28;;;20.32;100.00
15193;BME280;7697;51.630;7.484;2023-07-31T16:29:53;-17750.94;;;20.34;100.00
15193;BME280;7697;51.630;7.484;2023-07-31T16:34:56;-17753.31;;;20.41;99.54
15193;BME280;7697;51.630;7.484;2023-07-31T16:39:58;-17753.66;;;20.42;99.48
15193;BME280;7697;51.630;7.484;2023-07-31T16:45:02;-17751.28;;;20.35;100.00
15193;BME280;7697;51.630;7.484;2023-07-31T16:50:09;-17745.91;;;20.18;100.00
15193;BME280;7697;51.630;7.484;2023-07-31T16:55:11;-17739.53;;;19.99;100.00
15193;BME280;7697;51.630;7.484;2023-07-31T17:00:15;-17735.50;;;19.87;100.00
15193;BME280;7697;51.630;7.484;2023-07-31T17:05:17;-17729.16;;;19.68;100.00
15193;BME280;7697;51.630;7.484;2023-07-31T17:10:19;-17727.47;;;19.63;100.00
15193;BME280;7697;51.630;7.484;2023-07-31T17:15:22;-17728.81;;;19.67;100.00
15193;BME280;7697;51.630;7.484;2023-07-31T17:20:24;-17729.16;;;19.68;100.00
15193;BME280;7697;51.630;7.484;2023-07-31T17:25:26;-17727.81;;;19.64;100.00
15193;BME280;7697;51.630;7.484;2023-07-31T17:30:29;-17729.81;;;19.70;100.00
15193;BME280;7697;51.630;7.484;2023-07-31T17:35:30;-17728.31;;;19.65;100.00
15193;BME280;7697;51.630;7.484;2023-07-31T17:40:32;-17725.44;;;19.57;100.00
15193;BME280;7697;51.630;7.484;2023-07-31T17:45:36;-17724.78;;;19.55;100.00
15193;BME280;7697;51.630;7.484;2023-07-31T17:50:37;-17722.78;;;19.48;100.00
15193;BME280;7697;51.630;7.484;2023-07-31T17:55:40;-17722.44;;;19.47;100.00
15193;BME280;7697;51.630;7.484;2023-07-31T18:00:43;-17722.94;;;19.49;100.00
15193;BME280;7697;51.630;7.484;2023-07-31T18:05:45;-17721.41;;;19.44;100.00
15193;BME280;7697;51.630;7.484;2023-07-31T18:10:47;-17720.41;;;19.41;100.00
15193;BME280;7697;51.630;7.484;2023-07-31T18:15:50;-17717.06;;;19.31;100.00
15193;BME280;7697;51.630;7.484;2023-07-31T18:20:52;-17714.69;;;19.24;100.00
15193;BME280;7697;51.630;7.484;2023-07-31T18:25:53;-17712.69;;;19.18;100.00
15193;BME280;7697;51.630;7.484;2023-07-31T18:30:59;-17711.19;;;19.14;100.00
15193;BME280;7697;51.630;7.484;2023-07-31T18:36:02;-17709.50;;;19.08;100.00
15193;BME280;7697;51.630;7.484;2023-07-31T18:41:05;-17709.66;;;19.09;100.00
15193;BME280;7697;51.630;7.484;2023-07-31T18:46:08;-17706.47;;;18.99;100.00
15193;BME280;7697;51.630;7.484;2023-07-31T18:51:10;-17703.28;;;18.90;100.00
15193;BME280;7697;51.630;7.484;2023-07-31T18:56:13;-17700.94;;;18.83;100.00
15193;BME280;7697;51.630;7.484;2023-07-31T19:01:16;-17702.28;;;18.87;100.00
15193;BME280;7697;51.630;7.484;2023-07-31T19:06:18;-17700.28;;;18.81;100.00
15193;BME280;7697;51.630;7.484;2023-07-31T19:11:20;-17699.09;;;18.77;100.00
15193;BME280;7697;51.630;7.484;2023-07-31T19:16:23;-17699.28;;;18.78;100.00
15193;BME280;7697;51.630;7.484;2023-07-31T19:21:25;-17696.59;;;18.69;100.00
15193;BME280;7697;51.630;7.484;2023-07-31T19:26:27;-17695.91;;;18.67;100.00
15193;BME280;7697;51.630;7.484;2023-07-31T19:31:30;-17696.25;;;18.68;100.00
15193;BME280;7697;51.630;7.484;2023-07-31T19:36:32;-17695.25;;;18.65;100.00
15193;BME280;7697;51.630;7.484;2023-07-31T19:41:34;-17694.91;;;18.64;100.00
15193;BME280;7697;51.630;7.484;2023-07-31T19:46:40;-17692.91;;;18.58;100.00
15193;BME280;7697;51.630;7.484;2023-07-31T19:51:42;-17691.72;;;18.55;100.00
15193;BME280;7697;51.630;7.484;2023-07-31T19:56:44;-17691.53;;;18.54;100.00
15193;BME280;7697;51.630;7.484;2023-07-31T20:01:47;-17693.22;;;18.59;100.00
15193;BME280;7697;51.630;7.484;2023-07-31T20:06:49;-17691.53;;;18.54;100.00
15193;BME280;7697;51.630;7.484;2023-07-31T20:11:52;-17693.91;;;18.61;100.00
15193;BME280;7697;51.630;7.484;2023-07-31T20:16:55;-17695.41;;;18.66;100.00
15193;BME280;7697;51.630;7.484;2023-07-31T20:21:56;-17694.91;;;18.64;100.00
15193;BME280;7697;51.630;7.484;2023-07-31T20:26:58;-17693.72;;;18.61;100.00
15193;BME280;7697;51.630;7.484;2023-07-31T20:32:01;-17695.06;;;18.65;100.00
15193;BME280;7697;51.630;7.484;2023-07-31T20:37:04;-17696.59;;;18.69;100.00
15193;BME280;7697;51.630;7.484;2023-07-31T20:42:06;-17695.91;;;18.67;100.00
15193;BME280;7697;51.630;7.484;2023-07-31T20:47:13;-17697.41;;;18.72;100.00
15193;BME280;7697;51.630;7.484;2023-07-31T20:52:15;-17695.91;;;18.67;100.00
15193;BME280;7697;51.630;7.484;2023-07-31T20:57:17;-17697.25;;;18.71;100.00
15193;BME280;7697;51.630;7.484;2023-07-31T21:02:20;-17698.44;;;18.75;100.00
15193;BME280;7697;51.630;7.484;2023-07-31T21:07:22;-17697.25;;;18.71;100.00
15193;BME280;7697;51.630;7.484;2023-07-31T21:12:24;-17697.25;;;18.71;100.00
15193;BME280;7697;51.630;7.484;2023-07-31T21:17:27;-17699.28;;;18.78;100.00
15193;BME280;7697;51.630;7.484;2023-07-31T21:22:29;-17697.59;;;18.72;100.00
15193;BME280;7697;51.630;7.484;2023-07-31T21:27:31;-17698.94;;;18.77;100.00
15193;BME280;7697;51.630;7.484;2023-07-31T21:32:34;-17697.09;;;18.71;100.00
15193;BME280;7697;51.630;7.484;2023-07-31T21:37:36;-17696.25;;;18.68;100.00
15193;BME280;7697;51.630;7.484;2023-07-31T21:42:37;-17698.44;;;18.75;100.00
15193;BME280;7697;51.630;7.484;2023-07-31T21:47:40;-17697.94;;;18.73;100.00
15193;BME280;7697;51.630;7.484;2023-07-31T21:52:42;-17696.91;;;18.70;100.00
15193;BME280;7697;51.630;7.484;2023-07-31T21:57:44;-17694.91;;;18.64;100.00
15193;BME280;7697;51.630;7.484;2023-07-31T22:02:47;-17695.75;;;18.67;100.00
15193;BME280;7697;51.630;7.484;2023-07-31T22:07:49;-17696.91;;;18.70;100.00
15193;BME280;7697;51.630;7.484;2023-07-31T22:12:51;-17696.91;;;18.70;100.00
15193;BME280;7697;51.630;7.484;2023-07-31T22:17:54;-17696.75;;;18.70;100.00
15193;BME280;7697;51.630;7.484;2023-07-31T22:22:55;-17694.91;;;18.64;100.00
15193;BME280;7697;51.630;7.484;2023-07-31T22:27:57;-17690.19;;;18.50;100.00
15193;BME280;7697;51.630;7.484;2023-07-31T22:33:01;-17683.81;;;18.31;100.00
15193;BME280;7697;51.630;7.484;2023-07-31T22:38:03;-17680.81;;;18.22;100.00
15193;BME280;7697;51.630;7.484;2023-07-31T22:43:04;-17676.78;;;18.10;100.00
15193;BME280;7697;51.630;7.484;2023-07-31T22:48:07;-17674.75;;;18.04;100.00
15193;BME280;7697;51.630;7.484;2023-07-31T22:53:09;-17673.75;;;18.00;100.00
15193;BME280;7697;51.630;7.484;2023-07-31T22:58:11;-17672.09;;;17.95;100.00
15193;BME280;7697;51.630;7.484;2023-07-31T23:03:14;-17670.56;;;17.91;100.00
15193;BME280;7697;51.630;7.484;2023-07-31T23:08:16;-17672.09;;;17.95;100.00
15193;BME280;7697;51.630;7.484;2023-07-31T23:13:18;-17671.75;;;17.94;100.00
15193;BME280;7697;51.630;7.484;2023-07-31T23:18:21;-17672.25;;;17.96;100.00
15193;BME280;7697;51.630;7.484;2023-07-31T23:23:23;-17669.72;;;17.88;100.00
15193;BME280;7697;51.630;7.484;2023-07-31T23:28:25;-17671.06;;;17.92;100.00
15193;BME280;7697;51.630;7.484;2023-07-31T23:33:29;-17672.75;;;17.97;100.00
15193;BME280;7697;51.630;7.484;2023-07-31T23:38:30;-17672.09;;;17.95;100.00
15193;BME280;7697;51.630;7.484;2023-07-31T23:43:32;-17672.91;;;17.98;100.00
15193;BME280;7697;51.630;7.484;2023-07-31T23:48:35;-17672.91;;;17.98;100.00
15193;BME280;7697;51.630;7.484;2023-07-31T23:53:37;-17673.59;;;18.00;100.00
15193;BME280;7697;51.630;7.484;2023-07-31T23:58:39;-17673.75;;;18.00;100.00
